Time;durP1;ratioP1;P1;durP2;ratioP2;P2;SDS_P1;SDS_P2;PMS_P1;PMS_P2;Temp;Humidity;BMP_temperature;BMP_pressure;BME280_temperature;BME280_humidity;BME280_pressure;Samples;Min_cycle;Max_cycle;Signal;HPM_P1;HPM_P2
2021/11/26 00:01:31;;;;;;;42.58;34.13;;;;;;;15.84;29.71;94280.31;5051579;28;20064;-45
2021/11/26 00:04:00;;;;;;;43.38;34.55;;;;;;;15.83;29.27;94281.41;5039795;28;20045;-45
2021/11/26 00:06:28;;;;;;;41.33;34.83;;;;;;;15.76;29.42;94294.31;5037227;28;20036;-44
2021/11/26 00:08:55;;;;;;;42.15;35.28;;;;;;;15.63;29.44;94292.72;5051426;28;20448;-45
2021/11/26 00:11:23;;;;;;;42.40;33.42;;;;;;;14.77;31.34;94286.66;5051301;28;20515;-44
2021/11/26 00:14:06;;;;;;;40.67;32.55;;;;;;;15.67;29.77;94277.81;5044443;28;20481;-45
2021/11/26 00:16:39;;;;;;;37.55;31.08;;;;;;;16.97;28.25;94282.78;5048900;28;20050;-47
2021/11/26 00:19:07;;;;;;;46.53;37.08;;;;;;;15.33;30.34;94281.34;5032146;28;20053;-45
2021/11/26 00:21:36;;;;;;;47.35;36.33;;;;;;;14.79;31.44;94275.81;5044142;28;20048;-44
2021/11/26 00:24:07;;;;;;;45.72;36.13;;;;;;;15.18;31.05;94266.88;5051376;28;20417;-44
2021/11/26 00:26:34;;;;;;;43.40;34.13;;;;;;;16.15;29.71;94276.53;5051747;28;20045;-44
2021/11/26 00:29:01;;;;;;;46.33;35.47;;;;;;;16.39;29.09;94279.25;5042078;28;20383;-45
2021/11/26 00:31:28;;;;;;;47.25;36.38;;;;;;;16.37;29.42;94265.63;5032331;28;20455;-44
2021/11/26 00:33:55;;;;;;;43.72;34.75;;;;;;;16.84;28.62;94268.00;5046069;28;20059;-45
2021/11/26 00:36:22;;;;;;;47.38;34.30;;;;;;;17.45;27.62;94274.13;5039642;28;20063;-45
2021/11/26 00:38:49;;;;;;;38.40;31.52;;;;;;;16.63;28.73;94273.28;5036384;28;20470;-46
2021/11/26 00:41:17;;;;;;;51.47;39.80;;;;;;;15.83;30.29;94276.13;5040899;28;20498;-45
2021/11/26 00:43:44;;;;;;;42.55;35.45;;;;;;;16.50;29.19;94280.41;5055930;28;20049;-44
2021/11/26 00:46:12;;;;;;;46.92;36.80;;;;;;;15.18;31.29;94272.13;5053686;28;20064;-46
2021/11/26 00:48:39;;;;;;;46.20;35.83;;;;;;;15.35;31.49;94258.91;5056327;28;20509;-51
2021/11/26 00:51:06;;;;;;;42.85;33.70;;;;;;;14.49;32.64;94265.22;5048194;28;20049;-44
2021/11/26 00:53:33;;;;;;;49.63;36.15;;;;;;;14.24;33.15;94267.84;5065030;28;20052;-45
2021/11/26 00:56:00;;;;;;;44.72;34.78;;;;;;;15.83;30.64;94257.69;5057017;28;20438;-45
2021/11/26 00:58:28;;;;;;;41.08;31.70;;;;;;;16.41;29.26;94256.00;5040787;28;20053;-46
2021/11/26 01:00:55;;;;;;;39.42;32.55;;;;;;;15.64;30.65;94249.47;5036237;28;20053;-45
2021/11/26 01:03:22;;;;;;;42.63;31.13;;;;;;;15.99;30.22;94240.19;5043776;28;20394;-45
2021/11/26 01:05:50;;;;;;;42.00;32.38;;;;;;;15.29;31.33;94233.81;5055924;28;20068;-45
2021/11/26 01:08:17;;;;;;;37.78;29.70;;;;;;;15.87;30.35;94232.22;5054913;28;20080;-46
2021/11/26 01:10:46;;;;;;;38.00;30.77;;;;;;;15.58;30.95;94221.69;5055071;28;20049;-46
2021/11/26 01:13:13;;;;;;;38.35;31.35;;;;;;;16.08;30.02;94215.63;5055250;28;20052;-45
2021/11/26 01:15:43;;;;;;;43.70;32.10;;;;;;;17.49;27.78;94211.56;5047861;28;20052;-46
2021/11/26 01:18:11;;;;;;;32.35;27.33;;;;;;;16.36;29.49;94213.97;5036655;28;20047;-46
2021/11/26 01:20:39;;;;;;;32.33;27.00;;;;;;;16.82;28.59;94212.09;5035933;28;20049;-45
2021/11/26 01:23:07;;;;;;;27.48;23.85;;;;;;;17.14;28.22;94202.53;5067212;28;20060;-45
2021/11/26 01:25:35;;;;;;;31.40;26.05;;;;;;;15.76;30.78;94194.19;5047373;28;20052;-46
2021/11/26 01:28:02;;;;;;;31.13;26.40;;;;;;;15.47;31.08;94196.84;5050558;28;20056;-46
2021/11/26 01:30:39;;;;;;;31.70;25.42;;;;;;;16.25;29.69;94194.38;5055529;28;20052;-45
2021/11/26 01:33:09;;;;;;;30.23;24.35;;;;;;;16.21;29.46;94175.03;5054107;28;20063;-45
2021/11/26 01:35:38;;;;;;;30.25;24.33;;;;;;;15.82;30.15;94179.69;5055328;28;20064;-45
2021/11/26 01:38:06;;;;;;;29.15;24.30;;;;;;;15.97;29.74;94168.56;5054991;28;20053;-45
2021/11/26 01:40:39;;;;;;;26.40;21.40;;;;;;;17.37;28.13;94168.50;5055283;28;20075;-45
2021/11/26 01:43:09;;;;;;;29.38;22.52;;;;;;;15.83;30.09;94162.03;5055959;28;20056;-44
2021/11/26 01:45:56;;;;;;;26.77;22.23;;;;;;;14.59;32.37;94163.41;5044440;28;20053;-44
2021/11/26 01:48:24;;;;;;;27.27;22.75;;;;;;;14.57;32.38;94166.31;5052093;28;20053;-44
2021/11/26 01:50:54;;;;;;;30.30;22.25;;;;;;;16.70;28.71;94152.16;5055418;28;20045;-44
2021/11/26 01:53:21;;;;;;;25.27;21.55;;;;;;;15.81;30.24;94149.16;5055555;28;20060;-45
2021/11/26 01:55:48;;;;;;;27.33;21.60;;;;;;;17.05;28.12;94147.22;5056283;28;20052;-45
2021/11/26 01:58:15;;;;;;;24.85;20.35;;;;;;;16.98;28.18;94146.22;5041487;28;20099;-46
2021/11/26 02:00:44;;;;;;;23.60;20.35;;;;;;;16.94;28.16;94146.13;5035849;28;20042;-44
2021/11/26 02:03:11;;;;;;;24.77;21.35;;;;;;;16.18;29.50;94146.66;5041001;28;20051;-45
2021/11/26 02:05:39;;;;;;;25.33;21.20;;;;;;;16.22;29.47;94137.78;5045088;28;20380;-45
2021/11/26 02:08:07;;;;;;;24.98;21.30;;;;;;;15.43;30.51;94133.50;5050570;28;20059;-45
2021/11/26 02:10:34;;;;;;;25.40;21.27;;;;;;;14.73;31.95;94127.09;5039724;28;20045;-45
2021/11/26 02:13:02;;;;;;;24.98;21.33;;;;;;;14.47;32.41;94132.47;5038001;28;20052;-45
2021/11/26 02:15:29;;;;;;;23.73;20.65;;;;;;;16.10;29.93;94134.31;5037518;28;20046;-44
2021/11/26 02:17:58;;;;;;;21.98;18.42;;;;;;;17.38;27.64;94127.78;5039443;28;20061;-45
2021/11/26 02:20:28;;;;;;;23.40;20.10;;;;;;;15.28;30.90;94121.66;5036366;28;20467;-45
2021/11/26 02:22:56;;;;;;;23.85;20.33;;;;;;;14.62;32.45;94110.91;5041110;28;20465;-44
2021/11/26 02:25:24;;;;;;;23.33;19.88;;;;;;;16.33;29.57;94109.09;5055073;28;20048;-45
2021/11/26 02:27:54;;;;;;;22.95;18.98;;;;;;;15.75;30.46;94118.84;5043888;28;20057;-45
2021/11/26 02:30:21;;;;;;;20.75;18.45;;;;;;;16.11;29.89;94109.50;5035952;28;20416;-46
2021/11/26 02:33:06;;;;;;;23.25;19.13;;;;;;;15.24;31.03;94102.31;5035328;28;20460;-46
2021/11/26 02:35:34;;;;;;;22.95;18.75;;;;;;;15.82;30.56;94100.63;5055414;28;20049;-45
2021/11/26 02:38:02;;;;;;;22.73;18.92;;;;;;;16.48;29.05;94097.91;5054239;28;20048;-45
2021/11/26 02:40:30;;;;;;;22.65;18.20;;;;;;;16.15;29.53;94097.22;5054678;28;20352;-46
2021/11/26 02:42:58;;;;;;;22.30;18.17;;;;;;;16.77;28.76;94098.81;5053976;28;20056;-45
2021/11/26 02:45:26;;;;;;;22.35;18.70;;;;;;;16.08;29.80;94091.69;5017013;28;20056;-45
2021/11/26 02:47:54;;;;;;;22.85;17.27;;;;;;;17.20;27.91;94093.72;5046909;28;20052;-49
2021/11/26 02:50:23;;;;;;;20.73;17.92;;;;;;;16.98;28.26;94093.41;5041436;28;20056;-46
2021/11/26 02:52:51;;;;;;;19.52;17.33;;;;;;;17.64;27.19;94077.94;5067418;28;20371;-46
2021/11/26 02:55:21;;;;;;;21.17;16.77;;;;;;;16.46;28.83;94075.59;5054947;28;20057;-45
2021/11/26 02:57:48;;;;;;;20.58;17.70;;;;;;;15.46;31.04;94076.75;5051175;28;20448;-44
2021/11/26 03:00:19;;;;;;;20.20;17.33;;;;;;;15.85;30.12;94063.06;5040843;28;20483;-44
2021/11/26 03:02:46;;;;;;;19.20;17.08;;;;;;;16.16;29.52;94054.69;5034207;28;20049;-45
2021/11/26 03:05:14;;;;;;;19.42;17.33;;;;;;;15.14;30.96;94060.59;5054329;28;20047;-44
2021/11/26 03:07:41;;;;;;;18.80;16.63;;;;;;;16.91;28.18;94060.44;5051915;28;20083;-46
2021/11/26 03:10:09;;;;;;;20.75;17.70;;;;;;;16.99;28.06;94048.19;5034454;28;20045;-48
2021/11/26 03:12:36;;;;;;;19.27;17.13;;;;;;;15.37;30.48;94051.28;5035051;28;20356;-46
2021/11/26 03:15:05;;;;;;;19.83;17.52;;;;;;;16.24;29.13;94039.84;5049337;28;20045;-48
2021/11/26 03:17:32;;;;;;;20.25;17.67;;;;;;;16.75;28.42;94037.69;5054350;28;20045;-45
2021/11/26 03:20:00;;;;;;;23.10;17.73;;;;;;;16.62;28.39;94045.56;5053700;28;20045;-45
2021/11/26 03:22:27;;;;;;;20.02;17.20;;;;;;;17.03;27.92;94054.34;5067154;28;20040;-46
2021/11/26 03:24:54;;;;;;;20.58;18.00;;;;;;;16.67;28.32;94043.84;5048616;28;20056;-45
2021/11/26 03:27:21;;;;;;;20.58;17.77;;;;;;;17.04;27.92;94047.19;5040168;28;20053;-45
2021/11/26 03:29:48;;;;;;;22.98;19.75;;;;;;;17.45;27.15;94041.56;5053272;28;20048;-45
2021/11/26 03:32:15;;;;;;;26.00;21.08;;;;;;;16.97;27.70;94045.13;5053832;28;20048;-45
2021/11/26 03:34:42;;;;;;;27.13;21.95;;;;;;;16.32;28.38;94029.19;5053900;28;20040;-45
2021/11/26 03:37:09;;;;;;;23.92;19.73;;;;;;;16.90;27.72;94029.06;5053645;28;20049;-45
2021/11/26 03:39:36;;;;;;;30.02;22.00;;;;;;;15.02;30.65;94026.28;5039918;28;20056;-45
2021/11/26 03:42:04;;;;;;;24.15;20.10;;;;;;;15.52;29.96;94028.03;5033430;28;20056;-45
2021/11/26 03:44:31;;;;;;;22.70;19.10;;;;;;;16.00;29.26;94025.56;5046425;28;20359;-44
2021/11/26 03:46:58;;;;;;;22.02;18.63;;;;;;;15.65;29.84;94029.66;5053593;28;20052;-44
2021/11/26 03:49:25;;;;;;;19.08;17.02;;;;;;;16.25;28.58;94018.44;5053097;28;20048;-47
2021/11/26 03:51:52;;;;;;;21.02;18.05;;;;;;;14.82;31.16;94010.16;5061631;28;20040;-50
2021/11/26 03:54:20;;;;;;;19.33;16.70;;;;;;;14.37;32.00;94012.59;5055172;28;20068;-48
2021/11/26 03:56:47;;;;;;;20.23;16.90;;;;;;;14.81;31.57;93999.97;5040957;28;20053;-45
2021/11/26 03:59:14;;;;;;;19.13;16.80;;;;;;;15.15;30.67;93991.03;5053398;28;20049;-45
2021/11/26 04:01:42;;;;;;;21.05;15.98;;;;;;;15.86;29.50;93982.91;5039578;28;20073;-44
2021/11/26 04:04:10;;;;;;;21.42;18.33;;;;;;;16.36;28.44;93973.91;5037813;28;20060;-45
2021/11/26 04:06:37;;;;;;;23.60;20.38;;;;;;;17.13;27.57;93979.16;5034165;28;20048;-46
2021/11/26 04:09:04;;;;;;;24.42;20.60;;;;;;;17.86;26.19;93970.88;5032257;28;20352;-45
2021/11/26 04:11:32;;;;;;;21.17;18.58;;;;;;;17.90;26.37;93976.25;5032867;28;20088;-46
2021/11/26 04:13:59;;;;;;;19.42;17.38;;;;;;;17.23;26.88;93974.19;5032845;28;20127;-45
2021/11/26 04:16:26;;;;;;;18.35;16.35;;;;;;;17.23;27.33;93976.81;5031530;28;20054;-45
2021/11/26 04:18:53;;;;;;;20.13;17.50;;;;;;;15.95;29.02;93975.69;5039810;28;20483;-46
2021/11/26 04:21:21;;;;;;;19.35;17.27;;;;;;;14.89;30.61;93959.69;5033324;28;20785;-47
2021/11/26 04:23:48;;;;;;;19.55;17.40;;;;;;;14.61;31.46;93966.56;5038742;28;20068;-45
2021/11/26 04:26:15;;;;;;;21.55;17.30;;;;;;;14.99;30.27;93959.28;5053395;28;20045;-44
2021/11/26 04:28:42;;;;;;;22.92;18.25;;;;;;;15.07;30.34;93958.41;5052168;28;20135;-45
2021/11/26 04:31:09;;;;;;;23.23;19.80;;;;;;;16.08;28.81;93962.50;5052431;28;20049;-45
2021/11/26 04:33:36;;;;;;;21.88;17.67;;;;;;;16.70;27.79;93967.41;5040052;28;20057;-45
2021/11/26 04:36:04;;;;;;;20.45;17.67;;;;;;;16.43;28.46;93978.66;5053357;28;20049;-46
2021/11/26 04:38:31;;;;;;;21.80;17.90;;;;;;;16.47;28.44;93976.88;5050400;28;20061;-46
2021/11/26 04:40:59;;;;;;;20.58;17.45;;;;;;;16.52;28.18;93966.09;5052951;28;20052;-45
2021/11/26 04:43:26;;;;;;;19.73;16.98;;;;;;;16.52;28.28;93971.38;5052397;28;20060;-47
2021/11/26 04:45:53;;;;;;;22.25;19.35;;;;;;;16.31;28.72;93958.31;5052571;28;20037;-45
2021/11/26 04:48:21;;;;;;;23.70;19.77;;;;;;;16.61;28.11;93959.56;5053221;28;20055;-45
2021/11/26 04:50:50;;;;;;;20.45;16.90;;;;;;;18.46;25.44;93959.03;5039369;28;20053;-45
2021/11/26 04:53:18;;;;;;;20.15;17.17;;;;;;;18.14;26.05;93962.84;5072394;28;20056;-46
2021/11/26 04:55:45;;;;;;;24.83;21.35;;;;;;;16.43;28.35;93963.59;5053498;28;20456;-45
2021/11/26 04:58:12;;;;;;;25.85;21.42;;;;;;;15.84;29.18;93953.47;5049152;28;20052;-45
2021/11/26 05:00:40;;;;;;;24.77;19.95;;;;;;;16.39;28.32;93957.41;5032939;28;20045;-44
2021/11/26 05:03:07;;;;;;;24.80;20.40;;;;;;;16.26;28.73;93959.31;5031070;28;20064;-44
2021/11/26 05:05:35;;;;;;;20.50;17.80;;;;;;;18.31;25.70;93936.03;5042243;28;20682;-44
2021/11/26 05:08:02;;;;;;;21.70;17.90;;;;;;;18.34;25.52;93935.34;5036287;28;20061;-45
2021/11/26 05:10:31;;;;;;;23.63;19.85;;;;;;;16.33;28.76;93929.72;5033031;28;20053;-45
2021/11/26 05:12:59;;;;;;;21.33;17.92;;;;;;;15.67;29.80;93920.19;5033019;28;20050;-45
2021/11/26 05:15:29;;;;;;;21.25;18.25;;;;;;;15.99;29.48;93921.19;5049352;28;20045;-44
2021/11/26 05:18:02;;;;;;;18.98;16.40;;;;;;;17.39;27.60;93928.50;5052183;28;20049;-45
2021/11/26 05:20:31;;;;;;;18.80;16.58;;;;;;;16.20;28.98;93922.94;5055492;28;20048;-46
2021/11/26 05:22:58;;;;;;;18.80;16.80;;;;;;;16.07;29.44;93909.00;5073395;28;20478;-45
2021/11/26 05:25:25;;;;;;;21.02;17.15;;;;;;;16.15;29.46;93910.00;5059310;28;20052;-45
2021/11/26 05:27:52;;;;;;;19.13;16.95;;;;;;;15.52;30.60;93912.13;5054638;28;20041;-45
2021/11/26 05:30:21;;;;;;;19.35;16.40;;;;;;;14.95;31.45;93907.59;5057344;28;20051;-44
2021/11/26 05:32:50;;;;;;;18.85;16.85;;;;;;;15.55;30.75;93924.66;5041436;28;20069;-44
2021/11/26 05:35:18;;;;;;;21.65;17.15;;;;;;;14.99;31.79;93916.38;5052237;28;20068;-53
2021/11/26 05:37:46;;;;;;;20.90;16.52;;;;;;;15.40;31.19;93916.28;5055364;28;20399;-40
2021/11/26 05:40:15;;;;;;;20.13;16.52;;;;;;;15.15;31.68;93912.06;5057035;28;20041;-46
2021/11/26 05:42:43;;;;;;;18.73;16.73;;;;;;;14.37;33.22;93906.66;5054876;28;20384;-51
2021/11/26 05:45:12;;;;;;;20.33;16.80;;;;;;;15.25;31.44;93924.81;5050465;28;20053;-45
2021/11/26 05:47:40;;;;;;;21.08;17.80;;;;;;;15.38;31.25;93910.59;5055695;28;20057;-45
2021/11/26 05:50:12;;;;;;;22.10;17.60;;;;;;;15.21;31.97;93904.72;5056555;28;20462;-45
2021/11/26 05:52:39;;;;;;;21.85;16.20;;;;;;;15.49;31.31;93894.34;5067608;28;20052;-45
2021/11/26 05:55:09;;;;;;;22.35;17.60;;;;;;;16.30;30.16;93890.84;5049991;28;20049;-47
2021/11/26 05:57:37;;;;;;;22.13;16.92;;;;;;;16.41;29.60;93888.53;5041112;28;20052;-45
2021/11/26 06:00:09;;;;;;;19.13;16.05;;;;;;;16.37;29.81;93883.13;5056439;28;20459;-45
2021/11/26 06:02:37;;;;;;;18.42;15.43;;;;;;;16.89;29.07;93885.72;5057073;28;20048;-45
2021/11/26 06:05:04;;;;;;;21.05;16.58;;;;;;;15.78;30.88;93883.63;5056488;28;20455;-45
2021/11/26 06:07:33;;;;;;;19.52;16.50;;;;;;;15.22;32.09;93872.03;5056354;28;20045;-45
2021/11/26 06:10:00;;;;;;;19.33;16.48;;;;;;;15.45;31.71;93875.03;5047128;28;20053;-47
2021/11/26 06:12:27;;;;;;;20.15;16.05;;;;;;;15.39;31.75;93864.72;5036646;28;20041;-46
2021/11/26 06:14:55;;;;;;;19.02;16.80;;;;;;;15.72;31.14;93853.34;5047198;28;20057;-45
2021/11/26 06:17:22;;;;;;;20.48;16.52;;;;;;;15.16;32.31;93833.84;5054866;28;20057;-46
2021/11/26 06:19:49;;;;;;;16.95;14.63;;;;;;;15.74;31.29;93837.97;5056323;28;20064;-46
2021/11/26 06:22:16;;;;;;;16.40;14.38;;;;;;;16.52;29.46;93834.94;5051228;28;20057;-46
2021/11/26 06:24:44;;;;;;;20.80;15.15;;;;;;;15.25;31.75;93837.91;5044956;28;20399;-47
2021/11/26 06:27:11;;;;;;;16.13;13.82;;;;;;;16.89;28.99;93832.16;5055896;28;20347;-46
2021/11/26 06:29:38;;;;;;;15.77;13.60;;;;;;;15.91;30.53;93837.72;5055158;28;20394;-47
2021/11/26 06:32:06;;;;;;;17.52;13.65;;;;;;;15.92;30.53;93849.81;5050682;28;20061;-46
2021/11/26 06:34:33;;;;;;;20.08;13.65;;;;;;;16.84;28.89;93846.38;5043451;28;20049;-46
2021/11/26 06:37:00;;;;;;;16.70;14.63;;;;;;;15.96;29.93;93850.69;5055790;28;20064;-49
2021/11/26 06:39:27;;;;;;;15.82;13.50;;;;;;;18.01;27.07;93845.06;5053615;28;20052;-45
2021/11/26 06:41:54;;;;;;;16.27;14.27;;;;;;;16.80;29.05;93860.59;5035265;28;20052;-46
2021/11/26 06:44:21;;;;;;;16.70;14.07;;;;;;;17.14;28.12;93864.47;5040258;28;20059;-46
2021/11/26 06:46:48;;;;;;;17.40;13.35;;;;;;;16.79;28.54;93864.34;5055858;28;20044;-46
2021/11/26 06:49:15;;;;;;;15.35;13.10;;;;;;;16.13;29.58;93840.97;5055267;28;20045;-46
2021/11/26 06:51:42;;;;;;;15.27;13.63;;;;;;;15.61;30.64;93836.41;5055519;28;20048;-44
2021/11/26 06:54:10;;;;;;;16.80;12.80;;;;;;;16.07;29.87;93818.56;5071051;28;20057;-45
2021/11/26 06:56:38;;;;;;;17.70;12.93;;;;;;;15.68;30.62;93818.22;5046816;28;20057;-45
2021/11/26 06:59:05;;;;;;;16.67;12.80;;;;;;;16.18;29.72;93811.75;5048692;28;20367;-45
2021/11/26 07:01:32;;;;;;;16.90;13.00;;;;;;;15.61;30.50;93807.44;5055510;28;20052;-46
2021/11/26 07:03:59;;;;;;;16.50;13.73;;;;;;;15.50;30.90;93812.34;5055214;28;20052;-45
2021/11/26 07:06:26;;;;;;;12.95;11.55;;;;;;;16.65;28.88;93815.31;5049037;28;20060;-50
2021/11/26 07:08:53;;;;;;;16.45;13.88;;;;;;;16.67;28.68;93815.03;5046769;28;20045;-45
2021/11/26 07:11:20;;;;;;;15.93;13.52;;;;;;;17.67;27.54;93810.31;5052839;28;20057;-45
2021/11/26 07:13:48;;;;;;;16.23;13.75;;;;;;;17.01;28.23;93807.56;5035386;28;20381;-46
2021/11/26 07:16:15;;;;;;;15.43;13.38;;;;;;;15.69;30.52;93801.28;5055157;28;20048;-45
2021/11/26 07:18:42;;;;;;;16.30;13.10;;;;;;;17.85;27.14;93792.97;5045802;28;20044;-50
2021/11/26 07:21:09;;;;;;;18.40;13.35;;;;;;;17.10;28.16;93785.16;5040660;28;20056;-46
2021/11/26 07:23:36;;;;;;;13.82;12.40;;;;;;;17.25;28.05;93784.41;5075040;28;20056;-46
2021/11/26 07:26:03;;;;;;;17.73;13.98;;;;;;;17.85;27.10;93771.81;5045041;28;20403;-46
2021/11/26 07:28:31;;;;;;;19.38;14.45;;;;;;;16.99;28.02;93773.59;5042525;28;20078;-45
2021/11/26 07:30:58;;;;;;;20.13;15.60;;;;;;;16.19;29.99;93768.47;5052684;28;20057;-44
2021/11/26 07:33:25;;;;;;;18.38;15.18;;;;;;;16.35;29.20;93770.03;5034896;28;20057;-46
2021/11/26 07:35:52;;;;;;;18.20;15.80;;;;;;;15.89;30.09;93760.84;5043367;28;20728;-45
2021/11/26 07:38:19;;;;;;;17.67;14.95;;;;;;;16.27;29.61;93752.47;5047849;28;20353;-46
2021/11/26 07:40:49;;;;;;;19.85;16.08;;;;;;;16.65;29.13;93744.06;5054138;28;20052;-45
2021/11/26 07:43:16;;;;;;;18.60;14.77;;;;;;;17.55;27.62;93752.25;5053767;28;20052;-46
2021/11/26 07:45:44;;;;;;;17.38;14.77;;;;;;;17.46;27.42;93743.75;5034867;28;20056;-45
2021/11/26 07:48:11;;;;;;;17.77;15.43;;;;;;;16.49;29.09;93740.63;5038797;28;20704;-45
2021/11/26 07:50:38;;;;;;;17.17;15.38;;;;;;;15.60;30.61;93747.94;5036587;28;20052;-45
2021/11/26 07:53:05;;;;;;;18.67;15.75;;;;;;;15.85;30.04;93733.59;5070654;28;20052;-44
2021/11/26 07:55:32;;;;;;;19.50;14.95;;;;;;;16.42;29.31;93726.50;5034662;28;20057;-45
2021/11/26 07:57:59;;;;;;;19.73;15.27;;;;;;;15.91;30.01;93716.47;5036942;28;20059;-46
2021/11/26 08:00:26;;;;;;;18.80;15.15;;;;;;;16.97;28.14;93715.09;5047525;28;20452;-46
2021/11/26 08:02:55;;;;;;;17.17;14.30;;;;;;;16.74;28.45;93700.94;5034651;28;20052;-44
2021/11/26 08:05:22;;;;;;;16.70;14.40;;;;;;;16.65;28.65;93696.56;5034407;28;20053;-47
2021/11/26 08:07:49;;;;;;;18.88;15.73;;;;;;;16.84;28.65;93697.78;5035197;28;20080;-50
2021/11/26 08:10:16;;;;;;;19.75;15.55;;;;;;;15.97;29.76;93690.66;5054126;28;20049;-45
2021/11/26 08:12:44;;;;;;;18.27;15.30;;;;;;;16.38;29.09;93686.81;5054468;28;20041;-45
2021/11/26 08:15:13;;;;;;;16.35;14.55;;;;;;;16.70;28.61;93686.91;5054211;28;20053;-45
2021/11/26 08:17:40;;;;;;;16.42;14.52;;;;;;;17.35;27.73;93698.59;5054146;28;20060;-49
2021/11/26 08:20:08;;;;;;;16.88;14.45;;;;;;;16.07;29.38;93697.31;5052401;28;20064;-45
2021/11/26 08:22:35;;;;;;;19.88;15.75;;;;;;;15.68;30.34;93705.66;5049392;28;20061;-45
2021/11/26 08:25:02;;;;;;;18.00;14.88;;;;;;;16.95;28.36;93704.09;5034309;28;20057;-46
2021/11/26 08:27:30;;;;;;;19.73;14.35;;;;;;;16.65;28.56;93699.22;5034224;28;20041;-46
2021/11/26 08:29:57;;;;;;;17.80;14.13;;;;;;;18.45;26.33;93687.56;5038251;28;20049;-45
2021/11/26 08:32:24;;;;;;;19.67;14.18;;;;;;;16.67;28.62;93687.56;5054073;28;20045;-45
2021/11/26 08:34:51;;;;;;;16.45;14.35;;;;;;;16.19;29.36;93673.53;5036397;28;20045;-46
2021/11/26 08:37:18;;;;;;;14.65;13.18;;;;;;;18.83;25.27;93659.50;5053673;28;20467;-46
2021/11/26 08:39:48;;;;;;;15.25;13.65;;;;;;;16.91;28.13;93653.06;5053598;28;20391;-46
2021/11/26 08:42:15;;;;;;;17.65;15.00;;;;;;;16.86;28.44;93643.53;5044444;28;20045;-45
2021/11/26 08:44:42;;;;;;;17.38;14.27;;;;;;;17.03;28.03;93626.56;5034206;28;20053;-45
2021/11/26 08:47:09;;;;;;;17.10;14.07;;;;;;;16.52;28.85;93629.13;5033910;28;20360;-45
2021/11/26 08:49:37;;;;;;;16.25;14.15;;;;;;;17.03;28.40;93608.09;5048136;28;20063;-46
2021/11/26 08:52:04;;;;;;;18.42;14.25;;;;;;;17.01;28.55;93597.09;5063873;28;20040;-46
2021/11/26 08:54:31;;;;;;;17.05;14.75;;;;;;;17.24;28.38;93594.59;5075366;28;20052;-45
2021/11/26 08:56:59;;;;;;;14.75;13.20;;;;;;;17.14;28.15;93590.59;5077719;28;20055;-45
2021/11/26 08:59:27;;;;;;;15.23;13.50;;;;;;;17.09;28.35;93598.78;5057199;28;20049;-45
2021/11/26 09:01:54;;;;;;;15.70;14.10;;;;;;;16.92;29.30;93584.09;5037930;28;20060;-45
2021/11/26 09:04:23;;;;;;;15.18;13.65;;;;;;;16.72;29.31;93573.84;5037779;28;20052;-45
2021/11/26 09:06:51;;;;;;;15.18;13.68;;;;;;;16.78;29.15;93583.78;5037714;28;20064;-45
2021/11/26 09:09:19;;;;;;;15.75;13.98;;;;;;;16.93;28.89;93579.59;5048392;28;20045;-45
2021/11/26 09:11:47;;;;;;;15.88;14.00;;;;;;;16.79;29.12;93563.44;5057616;28;20049;-48
2021/11/26 09:14:15;;;;;;;18.08;14.43;;;;;;;16.37;29.89;93537.56;5057602;28;20044;-46
2021/11/26 09:16:42;;;;;;;15.30;13.77;;;;;;;16.43;29.86;93527.56;5057517;28;20049;-45
2021/11/26 09:19:09;;;;;;;16.10;12.77;;;;;;;16.57;29.70;93514.66;5053877;28;20463;-46
2021/11/26 09:21:37;;;;;;;15.93;13.82;;;;;;;16.86;29.08;93511.56;5045392;28;20060;-45
2021/11/26 09:24:04;;;;;;;16.77;13.82;;;;;;;16.61;29.63;93505.72;5046766;28;20053;-49
2021/11/26 09:26:31;;;;;;;16.58;14.60;;;;;;;16.82;29.49;93505.44;5037761;28;20445;-45
2021/11/26 09:28:58;;;;;;;15.50;13.30;;;;;;;18.45;26.60;93499.69;5040363;28;20049;-49
2021/11/26 09:31:26;;;;;;;19.65;13.75;;;;;;;16.77;29.25;93491.75;5039484;28;20057;-46
2021/11/26 09:33:54;;;;;;;15.55;13.00;;;;;;;16.85;29.48;93482.88;5055120;28;20053;-46
2021/11/26 09:36:23;;;;;;;17.08;14.63;;;;;;;16.84;29.35;93478.69;5057225;28;20041;-45
2021/11/26 09:38:50;;;;;;;16.08;14.38;;;;;;;16.28;30.40;93473.69;5056380;28;20064;-45
2021/11/26 09:41:18;;;;;;;17.27;14.98;;;;;;;16.55;29.81;93480.72;5057171;28;20047;-47
2021/11/26 09:43:47;;;;;;;17.25;15.00;;;;;;;16.77;29.61;93473.28;5057054;28;20048;-45
2021/11/26 09:46:17;;;;;;;17.25;14.80;;;;;;;15.95;30.98;93468.81;5056564;28;20055;-45
2021/11/26 09:48:45;;;;;;;15.10;13.43;;;;;;;16.36;30.13;93451.63;5042418;28;20055;-45
2021/11/26 09:51:12;;;;;;;17.48;14.70;;;;;;;16.74;29.30;93423.81;5059931;28;20052;-45
2021/11/26 09:53:39;;;;;;;15.35;13.25;;;;;;;16.97;28.85;93424.66;5068151;28;20060;-46
2021/11/26 09:56:08;;;;;;;14.68;13.10;;;;;;;16.77;28.93;93400.13;5057171;28;20048;-45
2021/11/26 09:58:36;;;;;;;16.83;14.50;;;;;;;17.17;28.55;93375.97;5053338;28;20053;-47
2021/11/26 10:01:06;;;;;;;15.30;13.60;;;;;;;17.75;27.60;93367.94;5053541;28;20056;-51
2021/11/26 10:03:41;;;;;;;20.65;17.77;;;;;;;17.30;28.60;93355.47;5043296;28;20439;-45
2021/11/26 10:06:23;;;;;;;17.33;15.52;;;;;;;16.44;29.71;93379.47;5054796;28;20052;-46
2021/11/26 10:09:05;;;;;;;17.10;14.00;;;;;;;17.03;28.83;93388.19;5024365;28;20459;-45
2021/11/26 10:11:38;;;;;;;15.93;13.82;;;;;;;16.48;29.69;93377.69;5056661;28;20044;-45
2021/11/26 10:14:27;;;;;;;16.58;14.80;;;;;;;17.20;28.33;93372.66;5055332;28;20064;-46
2021/11/26 10:17:02;;;;;;;14.85;13.02;;;;;;;16.22;30.30;93377.50;5056297;28;20482;-46
2021/11/26 10:19:36;;;;;;;15.68;13.95;;;;;;;16.40;29.89;93377.88;5054480;28;20057;-46
2021/11/26 10:22:19;;;;;;;15.63;13.55;;;;;;;16.31;30.02;93378.06;5066065;28;20451;-47
2021/11/26 10:25:06;;;;;;;14.82;13.18;;;;;;;17.06;28.50;93379.56;5054191;28;20061;-46
2021/11/26 10:27:39;;;;;;;15.57;13.60;;;;;;;16.46;29.61;93345.59;5036029;28;20037;-44
2021/11/26 10:30:28;;;;;;;19.27;13.82;;;;;;;16.60;29.29;93345.88;5050102;28;20059;-45
2021/11/26 10:33:17;;;;;;;14.57;12.77;;;;;;;16.37;29.48;93352.94;5049276;28;20084;-45
2021/11/26 10:35:48;;;;;;;16.00;12.63;;;;;;;16.53;29.15;93360.81;5055441;28;20040;-45
2021/11/26 10:38:22;;;;;;;13.40;12.00;;;;;;;16.20;29.88;93362.03;5056110;28;20049;-45
2021/11/26 10:40:54;;;;;;;13.70;11.27;;;;;;;16.29;29.55;93353.91;5055998;28;20367;-45
2021/11/26 10:43:26;;;;;;;12.32;10.95;;;;;;;16.69;29.09;93352.88;5055257;28;20056;-45
2021/11/26 10:59:00;;;;;;;15.13;10.93;;;;;;;16.49;29.26;93334.34;5054922;28;20059;-45
2021/11/26 11:01:27;;;;;;;12.48;11.18;;;;;;;16.61;28.94;93341.34;5055492;28;20037;-45
2021/11/26 11:03:55;;;;;;;12.25;11.05;;;;;;;17.03;28.72;93341.41;5055258;28;20052;-45
2021/11/26 11:06:24;;;;;;;12.75;10.82;;;;;;;16.80;28.88;93328.19;5054472;28;20371;-45
2021/11/26 11:09:07;;;;;;;13.10;10.95;;;;;;;16.45;29.02;93322.22;5055044;28;20049;-46
2021/11/26 11:11:35;;;;;;;14.50;10.57;;;;;;;16.16;29.56;93331.44;5055344;28;20052;-48
2021/11/26 11:14:17;;;;;;;12.07;10.85;;;;;;;16.29;29.49;93315.13;5055058;28;20440;-46
2021/11/26 11:16:48;;;;;;;13.35;11.15;;;;;;;17.97;26.76;93328.59;5036772;28;20061;-46
2021/11/26 11:19:16;;;;;;;13.30;11.07;;;;;;;16.88;28.31;93300.03;5041641;28;20041;-47
2021/11/26 11:21:47;;;;;;;15.18;11.00;;;;;;;16.56;28.91;93302.84;5056588;28;20052;-48
2021/11/26 11:24:16;;;;;;;12.82;11.52;;;;;;;17.70;27.05;93282.88;5054516;28;20372;-51
2021/11/26 11:26:47;;;;;;;14.05;10.90;;;;;;;17.78;27.24;93287.91;5034954;28;20056;-49
2021/11/26 11:29:25;;;;;;;13.52;11.57;;;;;;;17.36;27.94;93274.03;5041025;28;20049;-47
2021/11/26 11:31:54;;;;;;;12.00;10.18;;;;;;;17.77;27.40;93257.31;5055090;28;20056;-46
2021/11/26 11:34:24;;;;;;;11.85;10.68;;;;;;;18.68;25.67;93281.84;5045507;28;20053;-47
2021/11/26 11:36:58;;;;;;;10.38;9.38;;;;;;;19.31;24.88;93257.06;5034930;28;20068;-46